Herbert — DC7798 — position and weather

sailwx.info

Track history (hours):
 
Tides and Currents Weather Stations Pressure Air Temp Water Temp Dewpoint Dewpoint Depression Visibility Wind Speed Wind Dir Waves Ship Positions

Herbert

Last reported at 2018-Feb-15 16:18 UTC. Time now 2018-Feb-18 03:43 UTC.
Position N 47°51' E 017°34'.

Length 80 m; draft 0.1 m.

Type: Ship. MMSI: 211625650.

Date/timePositionNaut miles runAvg speedWind from/ knotsBaromVisibWave heightAir tempDewpointWater temp
2018-Feb-15 16:18N 47°51' E 017°34'2 3.8
2018-Feb-15 15:44N 47°53' E 017°32'0 0.6
2018-Feb-15 15:30N 47°53' E 017°32'0 0.3
2018-Feb-15 15:01N 47°53' E 017°32'2 4.0
2018-Feb-15 14:30N 47°55' E 017°30'2 4.5
2018-Feb-15 14:01N 47°56' E 017°27'4 8.3
2018-Feb-15 13:30N 47°59' E 017°23'4 8.6
2018-Feb-15 13:00N 48°01' E 017°17'4 9.0
2018-Feb-15 12:30N 48°03' E 017°11'3 5.7
2018-Feb-15 11:57N 48°06' E 017°09'0 0.0
2018-Feb-15 11:28N 48°06' E 017°09'0 0.0
2018-Feb-15 10:56N 48°06' E 017°09'0 0.0
2018-Feb-15 10:26N 48°06' E 017°09'0 0.0
2018-Feb-15 09:59N 48°06' E 017°09'0 0.0
2018-Feb-15 09:26N 48°06' E 017°09'0 0.0
2018-Feb-15 08:57N 48°06' E 017°09'0 0.0
2018-Feb-15 08:28N 48°06' E 017°09'0 0.0
2018-Feb-15 07:57N 48°06' E 017°09'0 0.0
2018-Feb-15 07:30N 48°06' E 017°09'0 0.0
2018-Feb-15 06:58N 48°06' E 017°09'0 0.0
2018-Feb-15 06:30N 48°06' E 017°09'0 0.0
2018-Feb-15 05:58N 48°06' E 017°09'0 0.0
2018-Feb-15 05:30N 48°06' E 017°09'0 0.0
2018-Feb-15 04:59N 48°06' E 017°09'0 0.0
2018-Feb-15 04:30N 48°06' E 017°09'0 0.0
2018-Feb-15 03:56N 48°06' E 017°09'0 0.0
2018-Feb-15 03:30N 48°06' E 017°09'0 0.0
2018-Feb-15 03:00N 48°06' E 017°09'0 0.0
2018-Feb-15 02:28N 48°06' E 017°09'0 0.0
2018-Feb-15 01:59N 48°06' E 017°09'0 0.0
2018-Feb-15 01:28N 48°06' E 017°09'0 0.0
2018-Feb-15 01:00N 48°06' E 017°09'0 0.0
2018-Feb-15 00:26N 48°06' E 017°09'0 0.0
2018-Feb-14 23:57N 48°06' E 017°09'0 0.0
2018-Feb-14 23:29N 48°06' E 017°09'0 0.0
2018-Feb-14 22:57N 48°06' E 017°09'0 0.0
2018-Feb-14 22:28N 48°06' E 017°09'0 0.0
2018-Feb-14 21:58N 48°06' E 017°09'0 0.0
2018-Feb-14 21:29N 48°06' E 017°09'0 0.0
2018-Feb-14 20:59N 48°06' E 017°09'0 0.0
2018-Feb-14 20:30N 48°06' E 017°09'0 0.0
2018-Feb-14 19:57N 48°06' E 017°09'0 0.0
2018-Feb-14 19:24N 48°06' E 017°09'0 0.0
2018-Feb-14 18:55N 48°06' E 017°09'0 0.0
2018-Feb-14 18:29N 48°06' E 017°09'0 0.0
2018-Feb-14 18:00N 48°06' E 017°09'0 0.0
2018-Feb-14 17:29N 48°06' E 017°09'0 0.0
2018-Feb-14 17:00N 48°06' E 017°09'0 0.0
2018-Feb-14 16:22N 48°06' E 017°09'0 0.0
2018-Feb-14 15:58N 48°06' E 017°09'0 0.0
2018-Feb-14 15:28N 48°06' E 017°09'0 0.0
2018-Feb-14 14:58N 48°06' E 017°09'0 0.0
2018-Feb-14 14:27N 48°06' E 017°09'0 0.0
2018-Feb-14 14:00N 48°06' E 017°09'2 4.8
2018-Feb-14 13:31N 48°08' E 017°08'4 8.6
2018-Feb-14 13:00N 48°08' E 017°02'3 6.9
2018-Feb-14 12:30N 48°09' E 016°57'19 7.5
2018-Feb-14 09:58N 48°11' E 016°28'  
2018-Feb-11 10:41N 48°08' E 016°51'1 2.7
2018-Feb-11 10:14N 48°08' E 016°53'1 2.5
2018-Feb-11 10:00N 48°08' E 016°54'1 2.3
2018-Feb-11 09:30N 48°09' E 016°55'1 2.5
2018-Feb-11 09:00N 48°09' E 016°57'1 2.5
2018-Feb-11 08:30N 48°10' E 016°58'1 2.6
2018-Feb-11 07:59N 48°10' E 016°60'1 2.7
2018-Feb-11 07:30N 48°09' E 017°01'1 2.7
2018-Feb-11 07:00N 48°09' E 017°03'1 2.3
2018-Feb-11 06:30N 48°08' E 017°05'2 3.4
2018-Feb-11 06:00N 48°08' E 017°07'2 3.2
2018-Feb-11 05:30N 48°07' E 017°08'1 2.4
2018-Feb-11 05:00N 48°06' E 017°09'0 0.1
2018-Feb-11 04:28N 48°06' E 017°09'0 0.0
2018-Feb-11 03:58N 48°06' E 017°09'0 0.0
2018-Feb-11 03:18N 48°06' E 017°09'0 0.0
2018-Feb-11 02:51N 48°06' E 017°09'0 0.0
2018-Feb-11 02:28N 48°06' E 017°09'0 0.0
2018-Feb-11 02:00N 48°06' E 017°09'0 0.0
2018-Feb-11 01:30N 48°06' E 017°09'0 0.0
2018-Feb-11 00:59N 48°06' E 017°09'0 0.0
2018-Feb-11 00:29N 48°06' E 017°09'0 0.0
2018-Feb-10 23:59N 48°06' E 017°09'0 0.0
2018-Feb-10 23:30N 48°06' E 017°09'0 0.0
2018-Feb-10 22:58N 48°06' E 017°09'0 0.0
2018-Feb-10 22:25N 48°06' E 017°09'0 0.0
2018-Feb-10 21:59N 48°06' E 017°09'0 0.0
2018-Feb-10 21:29N 48°06' E 017°09'0 0.0
2018-Feb-10 20:57N 48°06' E 017°09'0 0.0
2018-Feb-10 20:28N 48°06' E 017°09'0 0.0
2018-Feb-10 19:55N 48°06' E 017°09'0 0.0
2018-Feb-10 19:30N 48°06' E 017°09'0 0.0
2018-Feb-10 19:00N 48°06' E 017°09'0 0.0
2018-Feb-10 18:28N 48°06' E 017°09'0 0.2
2018-Feb-10 18:01N 48°06' E 017°09'2 3.4
2018-Feb-10 17:31N 48°04' E 017°10'2 3.8
2018-Feb-10 17:00N 48°03' E 017°12'2 4.8
2018-Feb-10 16:30N 48°02' E 017°15'3 5.8
2018-Feb-10 16:00N 48°00' E 017°19'3 6.1
2018-Feb-10 15:30N 47°59' E 017°23'3 6.1
2018-Feb-10 15:01N 47°57' E 017°26'3 6.1
2018-Feb-10 14:30N 47°55' E 017°30'2 5.0
2018-Feb-10 14:00N 47°53' E 017°32'1 1.1
2018-Feb-10 13:15N 47°52' E 017°33'66 2.1
2018-Feb-09 06:30N 47°27' E 019°03'4 4.3
2018-Feb-09 05:30N 47°23' E 018°60'  
2018-Feb-06 05:52N 47°16' E 018°55'410.7
2018-Feb-06 05:27N 47°20' E 018°57'2 0.2
2018-Feb-05 19:13N 47°23' E 018°58'1 2.7
2018-Feb-05 18:58N 47°23' E 018°59'  
Track history (hours):
 
Tides and Currents Weather Stations Pressure Air Temp Water Temp Dewpoint Dewpoint Depression Visibility Wind Speed Wind Dir Waves Ship Positions

Herbert

Last reported at 2018-Feb-15 16:18 UTC. Time now 2018-Feb-18 03:43 UTC.
Position N 47°51' E 017°34'.

Length 80 m; draft 0.1 m.

Type: Ship. MMSI: 211625650.

Date/timePositionNaut miles runAvg speedWind from/ knotsBaromVisibWave heightAir tempDewpointWater temp
2018-Feb-15 16:18N 47°51' E 017°34'2 3.8
2018-Feb-15 15:44N 47°53' E 017°32'0 0.6
2018-Feb-15 15:30N 47°53' E 017°32'0 0.3
2018-Feb-15 15:01N 47°53' E 017°32'2 4.0
2018-Feb-15 14:30N 47°55' E 017°30'2 4.5
2018-Feb-15 14:01N 47°56' E 017°27'4 8.3
2018-Feb-15 13:30N 47°59' E 017°23'4 8.6
2018-Feb-15 13:00N 48°01' E 017°17'4 9.0
2018-Feb-15 12:30N 48°03' E 017°11'3 5.7
2018-Feb-15 11:57N 48°06' E 017°09'0 0.0
2018-Feb-15 11:28N 48°06' E 017°09'0 0.0
2018-Feb-15 10:56N 48°06' E 017°09'0 0.0
2018-Feb-15 10:26N 48°06' E 017°09'0 0.0
2018-Feb-15 09:59N 48°06' E 017°09'0 0.0
2018-Feb-15 09:26N 48°06' E 017°09'0 0.0
2018-Feb-15 08:57N 48°06' E 017°09'0 0.0
2018-Feb-15 08:28N 48°06' E 017°09'0 0.0
2018-Feb-15 07:57N 48°06' E 017°09'0 0.0
2018-Feb-15 07:30N 48°06' E 017°09'0 0.0
2018-Feb-15 06:58N 48°06' E 017°09'0 0.0
2018-Feb-15 06:30N 48°06' E 017°09'0 0.0
2018-Feb-15 05:58N 48°06' E 017°09'0 0.0
2018-Feb-15 05:30N 48°06' E 017°09'0 0.0
2018-Feb-15 04:59N 48°06' E 017°09'0 0.0
2018-Feb-15 04:30N 48°06' E 017°09'0 0.0
2018-Feb-15 03:56N 48°06' E 017°09'0 0.0
2018-Feb-15 03:30N 48°06' E 017°09'0 0.0
2018-Feb-15 03:00N 48°06' E 017°09'0 0.0
2018-Feb-15 02:28N 48°06' E 017°09'0 0.0
2018-Feb-15 01:59N 48°06' E 017°09'0 0.0
2018-Feb-15 01:28N 48°06' E 017°09'0 0.0
2018-Feb-15 01:00N 48°06' E 017°09'0 0.0
2018-Feb-15 00:26N 48°06' E 017°09'0 0.0
2018-Feb-14 23:57N 48°06' E 017°09'0 0.0
2018-Feb-14 23:29N 48°06' E 017°09'0 0.0
2018-Feb-14 22:57N 48°06' E 017°09'0 0.0
2018-Feb-14 22:28N 48°06' E 017°09'0 0.0
2018-Feb-14 21:58N 48°06' E 017°09'0 0.0
2018-Feb-14 21:29N 48°06' E 017°09'0 0.0
2018-Feb-14 20:59N 48°06' E 017°09'0 0.0
2018-Feb-14 20:30N 48°06' E 017°09'0 0.0
2018-Feb-14 19:57N 48°06' E 017°09'0 0.0
2018-Feb-14 19:24N 48°06' E 017°09'0 0.0
2018-Feb-14 18:55N 48°06' E 017°09'0 0.0
2018-Feb-14 18:29N 48°06' E 017°09'0 0.0
2018-Feb-14 18:00N 48°06' E 017°09'0 0.0
2018-Feb-14 17:29N 48°06' E 017°09'0 0.0
2018-Feb-14 17:00N 48°06' E 017°09'0 0.0
2018-Feb-14 16:22N 48°06' E 017°09'0 0.0
2018-Feb-14 15:58N 48°06' E 017°09'0 0.0
2018-Feb-14 15:28N 48°06' E 017°09'0 0.0
2018-Feb-14 14:58N 48°06' E 017°09'0 0.0
2018-Feb-14 14:27N 48°06' E 017°09'0 0.0
2018-Feb-14 14:00N 48°06' E 017°09'2 4.8
2018-Feb-14 13:31N 48°08' E 017°08'4 8.6
2018-Feb-14 13:00N 48°08' E 017°02'3 6.9
2018-Feb-14 12:30N 48°09' E 016°57'19 7.5
2018-Feb-14 09:58N 48°11' E 016°28'  
2018-Feb-11 10:41N 48°08' E 016°51'1 2.7
2018-Feb-11 10:14N 48°08' E 016°53'1 2.5
2018-Feb-11 10:00N 48°08' E 016°54'1 2.3
2018-Feb-11 09:30N 48°09' E 016°55'1 2.5
2018-Feb-11 09:00N 48°09' E 016°57'1 2.5
2018-Feb-11 08:30N 48°10' E 016°58'1 2.6
2018-Feb-11 07:59N 48°10' E 016°60'1 2.7
2018-Feb-11 07:30N 48°09' E 017°01'1 2.7
2018-Feb-11 07:00N 48°09' E 017°03'1 2.3
2018-Feb-11 06:30N 48°08' E 017°05'2 3.4
2018-Feb-11 06:00N 48°08' E 017°07'2 3.2
2018-Feb-11 05:30N 48°07' E 017°08'1 2.4
2018-Feb-11 05:00N 48°06' E 017°09'0 0.1
2018-Feb-11 04:28N 48°06' E 017°09'0 0.0
2018-Feb-11 03:58N 48°06' E 017°09'0 0.0
2018-Feb-11 03:18N 48°06' E 017°09'0 0.0
2018-Feb-11 02:51N 48°06' E 017°09'0 0.0
2018-Feb-11 02:28N 48°06' E 017°09'0 0.0
2018-Feb-11 02:00N 48°06' E 017°09'0 0.0
2018-Feb-11 01:30N 48°06' E 017°09'0 0.0
2018-Feb-11 00:59N 48°06' E 017°09'0 0.0
2018-Feb-11 00:29N 48°06' E 017°09'0 0.0
2018-Feb-10 23:59N 48°06' E 017°09'0 0.0
2018-Feb-10 23:30N 48°06' E 017°09'0 0.0
2018-Feb-10 22:58N 48°06' E 017°09'0 0.0
2018-Feb-10 22:25N 48°06' E 017°09'0 0.0
2018-Feb-10 21:59N 48°06' E 017°09'0 0.0
2018-Feb-10 21:29N 48°06' E 017°09'0 0.0
2018-Feb-10 20:57N 48°06' E 017°09'0 0.0
2018-Feb-10 20:28N 48°06' E 017°09'0 0.0
2018-Feb-10 19:55N 48°06' E 017°09'0 0.0
2018-Feb-10 19:30N 48°06' E 017°09'0 0.0
2018-Feb-10 19:00N 48°06' E 017°09'0 0.0
2018-Feb-10 18:28N 48°06' E 017°09'0 0.2
2018-Feb-10 18:01N 48°06' E 017°09'2 3.4
2018-Feb-10 17:31N 48°04' E 017°10'2 3.8
2018-Feb-10 17:00N 48°03' E 017°12'2 4.8
2018-Feb-10 16:30N 48°02' E 017°15'3 5.8
2018-Feb-10 16:00N 48°00' E 017°19'3 6.1
2018-Feb-10 15:30N 47°59' E 017°23'3 6.1
2018-Feb-10 15:01N 47°57' E 017°26'3 6.1
2018-Feb-10 14:30N 47°55' E 017°30'2 5.0
2018-Feb-10 14:00N 47°53' E 017°32'1 1.1
2018-Feb-10 13:15N 47°52' E 017°33'66 2.1
2018-Feb-09 06:30N 47°27' E 019°03'4 4.3
2018-Feb-09 05:30N 47°23' E 018°60'  
2018-Feb-06 05:52N 47°16' E 018°55'410.7
2018-Feb-06 05:27N 47°20' E 018°57'2 0.2
2018-Feb-05 19:13N 47°23' E 018°58'1 2.7
2018-Feb-05 18:58N 47°23' E 018°59'  

Dump ship's entire track history